Time;durP1;ratioP1;P1;durP2;ratioP2;P2;SDS_P1;SDS_P2;PMS_P1;PMS_P2;Temp;Humidity;BMP_temperature;BMP_pressure;BME280_temperature;BME280_humidity;BME280_pressure;Samples;Min_cycle;Max_cycle;Signal;HPM_P1;HPM_P2
2023/10/14 00:01:55;;;;;;;4.60;3.40;;;;;;;10.35;90.43;93481.56;5065755;28;20140;-73
2023/10/14 00:04:26;;;;;;;4.90;2.93;;;;;;;10.41;89.92;93485.91;5066608;28;20041;-74
2023/10/14 00:06:54;;;;;;;5.50;2.97;;;;;;;10.41;89.47;93488.47;5065655;28;20569;-73
2023/10/14 00:09:22;;;;;;;5.97;3.35;;;;;;;10.33;89.63;93483.56;5060759;28;20040;-74
2023/10/14 00:11:54;;;;;;;7.03;3.50;;;;;;;10.26;90.15;93481.81;5066135;28;20052;-74
2023/10/14 00:14:22;;;;;;;4.95;2.83;;;;;;;10.19;90.54;93481.03;5064641;28;20501;-75
2023/10/14 00:16:51;;;;;;;4.72;2.83;;;;;;;10.10;90.55;93469.38;5064374;28;20054;-75
2023/10/14 00:19:19;;;;;;;5.63;2.90;;;;;;;10.13;90.07;93466.41;5063429;28;20041;-75
2023/10/14 00:21:48;;;;;;;7.00;3.00;;;;;;;10.13;90.56;93480.03;5063720;28;20052;-75
2023/10/14 00:24:25;;;;;;;6.65;3.28;;;;;;;9.99;90.77;93463.88;5059764;28;20055;-74
2023/10/14 00:26:52;;;;;;;4.45;3.05;;;;;;;10.10;90.49;93474.53;5064326;28;20580;-75
2023/10/14 00:29:19;;;;;;;5.43;3.00;;;;;;;10.12;90.37;93483.59;5063740;28;20552;-75
2023/10/14 00:31:50;;;;;;;6.15;3.00;;;;;;;10.12;90.68;93475.91;5063846;28;20090;-74
2023/10/14 00:34:21;;;;;;;6.95;3.40;;;;;;;10.13;89.81;93474.09;5063456;28;20432;-74
2023/10/14 00:36:48;;;;;;;7.63;3.03;;;;;;;10.12;90.24;93477.66;5063099;28;20975;-74
2023/10/14 00:39:16;;;;;;;6.18;2.70;;;;;;;10.08;90.17;93468.78;5063518;28;20045;-75
2023/10/14 00:41:44;;;;;;;6.68;2.97;;;;;;;10.09;90.19;93478.09;5064795;28;20492;-75
2023/10/14 00:44:11;;;;;;;6.03;3.17;;;;;;;9.99;91.04;93461.31;5064237;28;20049;-75
2023/10/14 00:46:42;;;;;;;5.88;3.70;;;;;;;9.97;91.27;93480.44;5064777;28;20080;-75
2023/10/14 00:49:11;;;;;;;5.18;3.13;;;;;;;9.95;91.25;93479.88;5065988;28;20122;-75
2023/10/14 00:51:42;;;;;;;5.25;3.38;;;;;;;9.84;91.85;93465.84;5065075;28;20044;-75
2023/10/14 00:54:11;;;;;;;6.43;3.55;;;;;;;9.85;91.79;93472.56;5067712;28;20049;-74
2023/10/14 00:56:40;;;;;;;5.68;3.17;;;;;;;9.79;92.31;93470.78;5070737;28;20420;-74
2023/10/14 00:59:09;;;;;;;7.72;2.95;;;;;;;9.67;91.91;93455.22;5070349;28;20059;-74
2023/10/14 01:01:55;;;;;;;7.75;3.17;;;;;;;9.74;92.58;93464.50;5066425;28;20049;-75
2023/10/14 01:04:31;;;;;;;5.35;3.10;;;;;;;9.68;93.00;93465.25;5070111;28;20121;-74
2023/10/14 01:07:04;;;;;;;6.95;3.17;;;;;;;9.69;93.20;93455.78;5070269;28;20049;-74
2023/10/14 01:09:48;;;;;;;6.15;3.10;;;;;;;9.65;93.70;93454.59;5068390;28;20059;-74
2023/10/14 01:12:23;;;;;;;6.28;2.92;;;;;;;9.65;93.58;93452.03;5069038;28;20593;-74
2023/10/14 01:14:52;;;;;;;7.95;3.22;;;;;;;9.66;93.61;93448.47;5064353;28;20063;-74
2023/10/14 01:17:26;;;;;;;7.93;3.70;;;;;;;9.64;93.91;93451.28;5068376;28;20056;-74
2023/10/14 01:19:55;;;;;;;6.70;3.53;;;;;;;9.63;93.28;93447.91;5069736;28;20131;-74
2023/10/14 01:22:23;;;;;;;7.80;3.20;;;;;;;9.59;93.54;93445.94;5064893;28;20048;-74
2023/10/14 01:24:52;;;;;;;5.70;3.03;;;;;;;9.57;94.06;93441.00;5068132;28;20049;-74
2023/10/14 01:27:21;;;;;;;7.43;3.28;;;;;;;9.56;94.02;93439.44;5068576;28;20076;-74
2023/10/14 01:29:51;;;;;;;8.63;3.35;;;;;;;9.59;93.85;93430.56;5064603;28;20106;-74
2023/10/14 01:32:42;;;;;;;7.28;2.67;;;;;;;9.47;95.38;93422.66;5069383;28;20629;-73
2023/10/14 01:35:23;;;;;;;8.57;3.53;;;;;;;9.55;94.69;93434.50;5069247;28;20053;-74
2023/10/14 01:37:52;;;;;;;11.45;7.82;;;;;;;9.45;94.43;93438.22;5067346;28;20056;-74
2023/10/14 01:40:29;;;;;;;7.93;4.70;;;;;;;9.46;94.63;93442.41;5068126;28;20059;-73
2023/10/14 01:42:58;;;;;;;8.02;4.28;;;;;;;9.34;94.36;93423.44;5066843;28;20049;-73
2023/10/14 01:45:28;;;;;;;5.22;3.22;;;;;;;9.30;94.99;93424.81;5062983;28;20124;-73
2023/10/14 01:48:11;;;;;;;8.02;3.85;;;;;;;9.31;95.17;93431.53;5066494;28;20144;-73
2023/10/14 01:50:40;;;;;;;6.93;3.55;;;;;;;9.28;96.06;93432.72;5069469;28;20850;-73
2023/10/14 01:53:10;;;;;;;6.13;4.20;;;;;;;9.20;96.51;93433.69;5067135;28;20129;-74
2023/10/14 01:55:37;;;;;;;8.90;4.18;;;;;;;9.20;96.70;93428.56;5069706;28;20157;-74
2023/10/14 01:58:10;;;;;;;5.80;3.60;;;;;;;9.27;96.17;93433.69;5069241;28;20048;-74
2023/10/14 02:00:39;;;;;;;9.32;5.78;;;;;;;9.25;95.23;93429.75;5063603;28;20052;-74
2023/10/14 02:03:07;;;;;;;12.45;5.68;;;;;;;8.98;95.35;93393.84;5068031;28;20520;-74
2023/10/14 02:05:40;;;;;;;8.35;5.00;;;;;;;9.07;95.84;93416.50;5066651;28;21111;-74
2023/10/14 02:08:15;;;;;;;10.93;5.70;;;;;;;9.16;95.00;93424.03;5065113;28;20040;-74
2023/10/14 02:10:46;;;;;;;9.23;4.95;;;;;;;9.12;95.47;93422.81;5064208;28;20064;-74
2023/10/14 02:13:15;;;;;;;7.30;4.10;;;;;;;9.09;95.54;93424.00;5066946;28;20053;-74
2023/10/14 02:15:46;;;;;;;13.40;6.90;;;;;;;9.08;94.99;93414.75;5057133;28;20048;-74
2023/10/14 02:18:13;;;;;;;9.98;6.15;;;;;;;9.01;95.08;93417.28;5068150;28;20495;-74
2023/10/14 02:20:56;;;;;;;12.45;5.70;;;;;;;9.02;95.27;93418.09;5068140;28;20040;-74
2023/10/14 02:23:25;;;;;;;8.23;4.95;;;;;;;8.98;95.81;93420.22;5068053;28;20412;-74
2023/10/14 02:25:56;;;;;;;8.45;4.07;;;;;;;8.98;95.86;93424.56;5066468;28;20056;-74
2023/10/14 02:28:23;;;;;;;8.15;4.45;;;;;;;8.91;95.52;93412.53;5068516;28;20045;-74
2023/10/14 02:30:51;;;;;;;7.53;3.72;;;;;;;8.85;96.15;93409.97;5068141;28;20048;-74
2023/10/14 02:33:19;;;;;;;8.40;3.70;;;;;;;8.89;95.93;93409.38;5067635;28;20586;-74
2023/10/14 02:35:45;;;;;;;5.97;3.30;;;;;;;8.89;96.42;93413.72;5067057;28;20094;-74
2023/10/14 02:38:12;;;;;;;6.65;3.55;;;;;;;8.86;96.28;93409.78;5068848;28;20049;-74
2023/10/14 02:40:41;;;;;;;6.38;3.55;;;;;;;8.87;95.65;93416.47;5063554;28;20063;-73
2023/10/14 02:43:08;;;;;;;8.70;3.88;;;;;;;8.89;95.35;93408.59;5063214;28;20417;-73
2023/10/14 02:45:39;;;;;;;6.75;4.32;;;;;;;8.86;95.45;93401.28;5068294;28;20512;-73
2023/10/14 02:48:06;;;;;;;7.30;4.13;;;;;;;8.86;95.24;93406.41;5066399;28;20052;-73
2023/10/14 02:50:36;;;;;;;7.45;3.90;;;;;;;8.78;95.99;93415.06;5065069;28;20044;-74
2023/10/14 02:53:06;;;;;;;8.45;5.30;;;;;;;8.73;96.58;93415.66;5068715;28;20056;-74
2023/10/14 02:58:20;;;;;;;8.27;4.78;;;;;;;8.66;96.56;93405.38;5063834;28;20512;-74
2023/10/14 03:00:49;;;;;;;7.22;3.90;;;;;;;8.65;96.85;93408.91;5067019;28;20505;-74
2023/10/14 03:03:19;;;;;;;5.60;3.28;;;;;;;8.37;97.35;93375.69;5068130;28;20049;-74
2023/10/14 03:05:52;;;;;;;7.50;3.70;;;;;;;8.59;96.80;93408.91;5068455;28;20045;-73
2023/10/14 03:08:19;;;;;;;7.88;3.50;;;;;;;8.55;96.82;93396.50;5064448;28;20052;-73
2023/10/14 03:10:53;;;;;;;6.30;3.80;;;;;;;8.54;96.75;93401.81;5067024;28;20048;-73
2023/10/14 03:13:22;;;;;;;11.40;6.43;;;;;;;8.48;97.05;93411.00;5067996;28;20082;-73
2023/10/14 03:15:52;;;;;;;13.57;7.68;;;;;;;8.45;97.60;93411.38;5063871;28;20060;-75
2023/10/14 03:18:20;;;;;;;11.32;6.60;;;;;;;8.42;97.95;93410.00;5065101;28;20051;-74
2023/10/14 03:20:58;;;;;;;8.05;4.65;;;;;;;8.39;98.67;93409.59;5063058;28;20052;-74
2023/10/14 03:23:27;;;;;;;5.97;3.95;;;;;;;8.24;98.40;93381.59;5066219;28;20102;-74
2023/10/14 03:26:03;;;;;;;7.75;3.70;;;;;;;8.37;98.55;93407.22;5060943;28;20040;-74
2023/10/14 03:28:31;;;;;;;;;;;;;;;8.41;99.32;93405.06;5067757;28;20139;-74
2023/10/14 03:30:59;;;;;;;8.00;3.22;;;;;;;8.34;99.42;93407.59;5068059;28;19959;-74
2023/10/14 03:33:29;;;;;;;6.15;2.97;;;;;;;8.27;100.00;93397.34;5061371;28;20428;-74
2023/10/14 03:36:00;;;;;;;5.72;2.90;;;;;;;8.33;100.00;93402.69;5060557;28;20072;-74
2023/10/14 03:38:33;;;;;;;7.65;3.60;;;;;;;8.35;100.00;93401.50;5062114;28;20048;-75
2023/10/14 03:41:04;;;;;;;7.82;3.08;;;;;;;8.36;100.00;93395.41;5065829;28;20049;-74
2023/10/14 03:43:43;;;;;;;7.57;3.60;;;;;;;8.37;99.65;93399.53;5065707;28;20041;-74
2023/10/14 03:46:14;;;;;;;7.93;3.38;;;;;;;8.15;98.84;93366.38;5064735;28;20106;-74
2023/10/14 03:48:50;;;;;;;6.07;3.78;;;;;;;8.36;98.23;93392.84;5067725;28;20135;-75
2023/10/14 03:51:24;;;;;;;10.85;3.78;;;;;;;8.35;97.42;93398.16;5063733;28;20052;-75
2023/10/14 03:53:52;;;;;;;8.55;3.72;;;;;;;8.29;98.75;93389.47;5065079;28;20044;-74
2023/10/14 03:56:24;;;;;;;10.55;4.07;;;;;;;8.29;99.36;93389.47;5067220;28;20455;-73
2023/10/14 03:58:55;;;;;;;7.15;5.35;;;;;;;8.29;99.27;93390.25;5066852;28;20436;-74
2023/10/14 04:01:24;;;;;;;6.90;4.78;;;;;;;8.29;99.40;93397.16;5063396;28;20456;-74
2023/10/14 04:03:53;;;;;;;6.63;4.03;;;;;;;8.29;99.32;93387.69;5064452;28;20044;-74
2023/10/14 04:06:20;;;;;;;6.20;3.58;;;;;;;8.24;99.16;93382.34;5063271;28;20163;-74
2023/10/14 04:08:49;;;;;;;8.13;3.95;;;;;;;8.28;98.98;93388.69;5067077;28;20693;-74
2023/10/14 04:11:17;;;;;;;6.03;4.28;;;;;;;8.24;98.81;93381.59;5067349;28;20052;-74
2023/10/14 04:13:58;;;;;;;9.27;3.88;;;;;;;8.21;99.39;93382.75;5066714;28;20509;-74
2023/10/14 04:16:36;;;;;;;8.10;3.47;;;;;;;8.22;99.28;93383.53;5064582;28;20064;-74
2023/10/14 04:19:22;;;;;;;8.15;3.25;;;;;;;8.14;100.00;93382.72;5067074;28;20090;-74
2023/10/14 04:21:58;;;;;;;6.25;3.08;;;;;;;8.14;99.81;93377.59;5061653;28;20044;-74
2023/10/14 04:24:35;;;;;;;7.32;3.67;;;;;;;8.15;99.64;93379.16;5063095;28;20159;-73
2023/10/14 04:27:16;;;;;;;6.28;3.42;;;;;;;8.05;100.00;93377.94;5064770;28;20045;-74
2023/10/14 04:29:51;;;;;;;5.45;3.92;;;;;;;8.09;100.00;93382.50;5063891;28;20135;-74
2023/10/14 04:32:27;;;;;;;6.60;3.40;;;;;;;8.10;99.76;93380.72;5066889;28;20131;-74
2023/10/14 04:34:56;;;;;;;7.05;3.60;;;;;;;8.01;100.00;93370.63;5066729;28;20047;-74
2023/10/14 04:37:36;;;;;;;7.43;3.75;;;;;;;8.11;100.00;93384.88;5062734;28;20052;-74
2023/10/14 04:40:15;;;;;;;8.80;4.00;;;;;;;8.15;99.56;93384.28;5061283;28;20052;-74
2023/10/14 04:42:44;;;;;;;6.32;4.18;;;;;;;8.10;99.66;93378.19;5065657;28;20506;-74
2023/10/14 04:45:13;;;;;;;8.75;4.43;;;;;;;8.01;99.57;93365.53;5065786;28;20059;-74
2023/10/14 04:47:44;;;;;;;9.77;4.40;;;;;;;8.12;99.36;93378.75;5063280;28;20048;-74
2023/10/14 04:50:14;;;;;;;6.78;3.88;;;;;;;8.05;99.45;93380.50;5066288;28;20048;-73
2023/10/14 04:52:42;;;;;;;9.25;4.35;;;;;;;8.08;99.43;93382.66;5065422;28;20455;-73
2023/10/14 04:55:25;;;;;;;10.77;4.47;;;;;;;8.05;98.94;93373.59;5065747;28;20075;-73
2023/10/14 04:58:09;;;;;;;6.85;3.95;;;;;;;8.04;98.71;93368.69;5064633;28;20044;-73
2023/10/14 05:00:42;;;;;;;7.05;3.25;;;;;;;8.11;99.02;93383.06;5066530;28;20045;-73
2023/10/14 05:03:11;;;;;;;9.88;3.60;;;;;;;8.04;99.08;93368.69;5067842;28;20044;-73
2023/10/14 05:05:41;;;;;;;12.13;4.20;;;;;;;8.11;99.47;93379.75;5068749;28;20052;-73
2023/10/14 05:08:12;;;;;;;8.25;4.30;;;;;;;7.83;99.98;93343.00;5065893;28;20053;-74
2023/10/14 05:10:42;;;;;;;12.45;5.35;;;;;;;7.83;99.91;93334.56;5067408;28;20462;-74
2023/10/14 05:13:11;;;;;;;9.77;4.82;;;;;;;7.87;100.00;93348.56;5068387;28;20052;-74
2023/10/14 05:15:42;;;;;;;13.07;4.25;;;;;;;8.14;99.88;93389.59;5070304;28;20679;-74
2023/10/14 05:18:16;;;;;;;14.25;5.40;;;;;;;8.08;100.00;93383.47;5068303;28;20687;-74
2023/10/14 05:20:56;;;;;;;9.30;5.00;;;;;;;8.11;100.00;93383.06;5070803;28;20394;-74
2023/10/14 05:23:30;;;;;;;8.75;4.90;;;;;;;8.07;100.00;93376.78;5072520;28;20056;-74
2023/10/14 05:25:57;;;;;;;8.80;4.43;;;;;;;8.10;100.00;93376.38;5068230;28;20044;-74
2023/10/14 05:28:29;;;;;;;7.03;4.75;;;;;;;8.17;100.00;93386.66;5070895;28;20049;-74
2023/10/14 05:30:57;;;;;;;11.35;5.43;;;;;;;8.26;100.00;93394.97;5080848;28;20636;-74
2023/10/14 05:33:27;;;;;;;10.65;4.68;;;;;;;8.30;100.00;93398.72;5080749;28;20052;-73
2023/10/14 05:35:57;;;;;;;9.52;4.70;;;;;;;8.27;100.00;93378.63;5067361;28;20055;-74
2023/10/14 05:38:24;;;;;;;8.48;5.07;;;;;;;8.43;100.00;93390.31;5059100;28;20068;-74
2023/10/14 05:40:55;;;;;;;9.63;4.57;;;;;;;8.51;100.00;93392.69;5076316;28;20048;-74
2023/10/14 05:43:23;;;;;;;9.82;4.78;;;;;;;8.61;100.00;93401.81;5083148;28;20056;-75
2023/10/14 05:45:51;;;;;;;8.40;4.57;;;;;;;8.65;100.00;93403.00;5068782;28;20097;-74
2023/10/14 05:48:18;;;;;;;7.95;4.65;;;;;;;8.72;100.00;93408.94;5088353;28;20748;-74
2023/10/14 05:50:49;;;;;;;11.02;4.40;;;;;;;8.77;100.00;93404.03;5074881;28;20415;-75
2023/10/14 05:53:16;;;;;;;10.93;4.63;;;;;;;8.86;100.00;93404.66;5069161;28;20570;-73
2023/10/14 05:55:47;;;;;;;8.20;5.05;;;;;;;8.97;100.00;93405.84;5070514;28;20048;-73
2023/10/14 05:58:14;;;;;;;7.50;4.55;;;;;;;9.09;100.00;93411.19;5070181;28;20052;-73
2023/10/14 06:00:42;;;;;;;11.18;4.95;;;;;;;9.23;100.00;93410.22;5071530;28;20049;-73
2023/10/14 06:03:12;;;;;;;8.30;4.55;;;;;;;9.37;100.00;93417.91;5074457;28;20052;-72
2023/10/14 06:05:39;;;;;;;7.22;4.55;;;;;;;9.40;100.00;93401.34;5088569;28;20044;-73
2023/10/14 06:08:11;;;;;;;8.95;5.10;;;;;;;9.55;100.00;93407.09;5073565;28;20045;-73
2023/10/14 06:10:41;;;;;;;11.32;5.75;;;;;;;9.70;100.00;93406.06;5072798;28;20548;-73
2023/10/14 06:13:09;;;;;;;12.05;5.80;;;;;;;9.78;99.68;93408.44;5073861;28;20088;-72
2023/10/14 06:15:39;;;;;;;10.07;5.95;;;;;;;9.94;100.00;93406.41;5070072;28;20102;-72
2023/10/14 06:18:08;;;;;;;11.90;6.13;;;;;;;9.99;100.00;93415.13;5069784;28;20447;-73
2023/10/14 06:20:35;;;;;;;8.55;5.28;;;;;;;10.05;99.82;93398.13;5067507;28;20044;-72
2023/10/14 06:23:02;;;;;;;14.52;6.15;;;;;;;10.08;100.00;93390.03;5075048;28;20048;-73
2023/10/14 06:25:30;;;;;;;14.85;5.55;;;;;;;10.34;98.13;93411.47;5080680;28;20044;-72
2023/10/14 06:27:59;;;;;;;14.45;6.10;;;;;;;10.47;96.85;93402.97;5077402;28;20106;-72
2023/10/14 06:30:25;;;;;;;14.77;5.75;;;;;;;10.59;97.54;93402.31;5066305;28;20098;-74
2023/10/14 06:32:58;;;;;;;9.38;5.95;;;;;;;10.78;95.48;93403.22;5076762;28;20052;-73
2023/10/14 06:35:26;;;;;;;9.93;6.03;;;;;;;10.93;94.87;93401.16;5066267;28;20713;-73
2023/10/14 06:37:54;;;;;;;10.90;5.22;;;;;;;11.08;93.20;93413.72;5070064;28;20051;-73
2023/10/14 06:40:21;;;;;;;14.68;7.68;;;;;;;11.16;93.72;93393.91;5069379;28;20052;-73
2023/10/14 06:42:50;;;;;;;22.15;7.72;;;;;;;11.39;93.99;93395.91;5062726;28;20051;-72
2023/10/14 06:45:22;;;;;;;15.02;7.07;;;;;;;11.57;94.00;93402.88;5070021;28;20044;-73
2023/10/14 06:47:51;;;;;;;16.05;6.45;;;;;;;11.70;93.93;93393.47;5069510;28;20518;-72
2023/10/14 06:50:23;;;;;;;16.52;6.28;;;;;;;11.85;93.68;93395.72;5065774;28;20127;-72
2023/10/14 06:52:53;;;;;;;17.17;6.68;;;;;;;12.01;92.72;93392.59;5073626;28;20658;-72
2023/10/14 06:55:22;;;;;;;17.17;6.35;;;;;;;12.15;92.22;93397.63;5069094;28;20776;-72
2023/10/14 06:57:55;;;;;;;19.65;6.82;;;;;;;12.36;90.61;93400.78;5069474;28;20079;-73
2023/10/14 07:00:30;;;;;;;19.90;6.30;;;;;;;12.43;90.58;93391.97;5069127;28;20044;-73
2023/10/14 07:03:01;;;;;;;18.90;6.47;;;;;;;12.51;89.24;93397.84;5070356;28;20467;-73
2023/10/14 07:05:29;;;;;;;18.00;7.50;;;;;;;12.62;89.34;93398.88;5070386;28;20048;-73
2023/10/14 07:07:57;;;;;;;19.92;7.13;;;;;;;12.80;87.89;93388.56;5064961;28;20098;-73
2023/10/14 07:10:32;;;;;;;19.92;7.32;;;;;;;12.89;88.31;93386.47;5069186;28;20052;-73
2023/10/14 07:13:01;;;;;;;23.75;7.70;;;;;;;13.13;86.62;93394.25;5068067;28;20060;-73
2023/10/14 07:15:30;;;;;;;24.60;7.97;;;;;;;13.25;86.07;93391.72;5074458;28;20118;-73
2023/10/14 07:17:58;;;;;;;31.35;9.48;;;;;;;13.36;85.61;93387.56;5068599;28;20380;-73
2023/10/14 07:20:29;;;;;;;33.17;11.02;;;;;;;13.47;84.94;93396.38;5064736;28;20043;-73
2023/10/14 07:22:56;;;;;;;38.72;10.93;;;;;;;13.59;84.24;93392.00;5072241;28;20059;-74
2023/10/14 07:25:24;;;;;;;45.92;12.35;;;;;;;13.75;83.34;93389.78;5061924;28;20048;-74
2023/10/14 07:27:51;;;;;;;50.10;11.63;;;;;;;13.86;82.53;93376.06;5068102;28;20354;-73
2023/10/14 07:30:26;;;;;;;44.05;10.27;;;;;;;14.06;81.45;93379.31;5068546;28;20045;-73
2023/10/14 07:32:53;;;;;;;51.10;10.50;;;;;;;14.26;81.23;93377.13;5067761;28;20052;-74
2023/10/14 07:35:20;;;;;;;63.00;12.15;;;;;;;14.48;79.09;93373.94;5074954;28;20076;-74
2023/10/14 07:37:49;;;;;;;53.88;11.52;;;;;;;14.51;78.24;93377.84;5062108;28;20045;-74
2023/10/14 07:40:24;;;;;;;46.45;11.38;;;;;;;14.44;78.21;93344.38;5055021;28;20452;-74
2023/10/14 07:42:53;;;;;;;49.53;11.82;;;;;;;14.90;77.59;93380.66;5060005;28;20453;-74
2023/10/14 07:45:23;;;;;;;44.17;10.90;;;;;;;14.86;75.24;93337.41;5067932;28;20094;-74
2023/10/14 07:47:50;;;;;;;35.45;9.70;;;;;;;15.31;73.03;93374.59;5067700;28;20139;-74
2023/10/14 07:50:18;;;;;;;42.40;8.95;;;;;;;15.54;74.39;93375.47;5085684;28;20063;-74
2023/10/14 07:52:45;;;;;;;36.65;8.55;;;;;;;15.81;72.26;93359.28;5070856;28;20520;-74
2023/10/14 07:55:15;;;;;;;33.65;8.13;;;;;;;16.02;70.81;93355.19;5079242;28;20059;-74
2023/10/14 07:57:46;;;;;;;44.72;7.72;;;;;;;16.12;68.64;93359.72;5074822;28;20080;-74
2023/10/14 08:00:14;;;;;;;40.70;7.30;;;;;;;16.36;69.92;93364.66;5079893;28;20054;-74
2023/10/14 08:02:43;;;;;;;34.08;8.88;;;;;;;16.48;67.99;93352.34;5085930;28;20048;-74
2023/10/14 08:05:11;;;;;;;17.67;5.43;;;;;;;16.64;65.74;93350.72;5068166;28;20048;-74
2023/10/14 08:07:41;;;;;;;29.50;7.93;;;;;;;16.76;66.14;93329.03;5066002;28;20517;-73
2023/10/14 08:10:21;;;;;;;30.88;7.18;;;;;;;17.21;65.39;93353.84;5063121;28;20090;-74
2023/10/14 08:12:50;;;;;;;26.75;5.85;;;;;;;17.38;65.48;93347.75;5081712;28;20451;-74
2023/10/14 08:15:18;;;;;;;34.20;6.45;;;;;;;17.55;63.48;93357.97;5086272;28;20109;-74
2023/10/14 08:17:48;;;;;;;24.90;6.57;;;;;;;17.66;62.14;93360.66;5077023;28;20044;-74
2023/10/14 08:20:18;;;;;;;31.58;6.15;;;;;;;17.67;61.55;93344.81;5078186;28;20555;-74
2023/10/14 08:22:47;;;;;;;38.38;8.05;;;;;;;17.70;61.14;93346.94;5082213;28;20201;-74
2023/10/14 08:25:18;;;;;;;25.70;5.75;;;;;;;17.96;61.16;93341.88;5068271;28;20051;-74
2023/10/14 08:27:46;;;;;;;23.85;5.35;;;;;;;18.14;59.98;93339.91;5069968;28;20719;-74
2023/10/14 08:30:13;;;;;;;22.85;6.18;;;;;;;18.32;60.47;93340.50;5068162;28;20497;-74
2023/10/14 08:32:40;;;;;;;31.27;7.03;;;;;;;18.38;58.95;93342.09;5066967;28;20053;-74
2023/10/14 08:35:15;;;;;;;32.13;6.90;;;;;;;18.49;58.57;93328.09;5073128;28;20052;-74
2023/10/14 08:37:48;;;;;;;37.30;9.40;;;;;;;18.60;60.37;93330.72;5065204;28;20052;-74
2023/10/14 08:40:17;;;;;;;41.13;8.45;;;;;;;18.81;57.53;93327.13;5078178;28;21026;-74
2023/10/14 08:42:50;;;;;;;27.80;7.57;;;;;;;19.04;58.40;93327.69;5071791;28;20044;-74
2023/10/14 08:45:19;;;;;;;29.08;7.43;;;;;;;19.31;55.59;93329.22;5075772;28;20919;-74
2023/10/14 08:47:50;;;;;;;30.38;9.25;;;;;;;19.45;55.56;93319.06;5062425;28;20576;-74
2023/10/14 08:50:21;;;;;;;18.77;3.83;;;;;;;19.40;52.52;93297.47;5065650;28;20045;-74
2023/10/14 08:52:50;;;;;;;24.75;6.05;;;;;;;19.32;54.26;93296.16;5070323;28;20083;-74
2023/10/14 08:55:19;;;;;;;39.83;6.72;;;;;;;19.67;54.54;93314.63;5085747;28;20048;-74
2023/10/14 08:57:47;;;;;;;18.88;5.22;;;;;;;19.97;55.22;93307.78;5085791;28;20048;-74
2023/10/14 09:00:19;;;;;;;20.17;5.47;;;;;;;20.16;53.53;93305.38;5079405;28;20044;-74
2023/10/14 09:02:48;;;;;;;20.88;6.72;;;;;;;20.42;52.13;93311.25;5074755;28;20059;-74
2023/10/14 09:05:16;;;;;;;23.45;5.47;;;;;;;20.60;51.07;93292.66;5063927;28;20059;-74
2023/10/14 09:07:46;;;;;;;20.02;5.10;;;;;;;20.86;51.83;93314.19;5066219;28;20052;-74
2023/10/14 09:10:15;;;;;;;17.73;5.93;;;;;;;21.00;50.78;93313.56;5064931;28;20052;-74
2023/10/14 09:12:53;;;;;;;24.05;7.22;;;;;;;21.19;49.70;93308.44;5070734;28;20135;-75
2023/10/14 09:15:21;;;;;;;25.50;7.25;;;;;;;21.33;49.21;93306.78;5074953;28;20052;-74
2023/10/14 09:17:47;;;;;;;22.75;7.07;;;;;;;21.57;48.27;93306.03;5077216;28;20071;-74
2023/10/14 09:20:28;;;;;;;23.80;6.88;;;;;;;21.76;50.21;93297.53;5082938;28;20052;-74
2023/10/14 09:23:16;;;;;;;21.60;5.78;;;;;;;21.95;48.12;93288.97;5071933;28;20632;-75
2023/10/14 09:25:44;;;;;;;14.77;5.68;;;;;;;22.12;46.64;93283.28;5074738;28;20055;-74
2023/10/14 09:28:11;;;;;;;17.98;5.43;;;;;;;22.22;47.32;93269.28;5072494;28;20048;-74
2023/10/14 09:30:44;;;;;;;21.20;5.32;;;;;;;22.47;46.05;93278.66;5071582;28;20045;-74
2023/10/14 09:33:15;;;;;;;19.20;5.53;;;;;;;22.73;48.27;93274.94;5075545;28;20049;-74
2023/10/14 09:35:45;;;;;;;17.20;5.10;;;;;;;22.97;46.13;93274.84;5071249;28;20060;-74
2023/10/14 09:38:18;;;;;;;20.02;6.45;;;;;;;23.23;47.36;93256.06;5071033;28;20583;-74
2023/10/14 09:40:47;;;;;;;16.42;5.72;;;;;;;23.43;45.23;93257.63;5069252;28;20044;-75
2023/10/14 09:43:15;;;;;;;15.90;5.75;;;;;;;23.64;46.37;93251.97;5076969;28;20102;-75
2023/10/14 09:45:44;;;;;;;20.42;5.88;;;;;;;23.86;46.14;93253.94;5071625;28;20048;-75
2023/10/14 09:48:14;;;;;;;13.20;4.22;;;;;;;23.82;44.79;93239.84;5070159;28;20048;-74
2023/10/14 09:50:42;;;;;;;15.20;4.90;;;;;;;24.05;43.80;93237.31;5066799;28;20037;-74
2023/10/14 09:53:13;;;;;;;12.52;4.05;;;;;;;24.21;45.74;93223.91;5076398;28;20053;-74
2023/10/14 09:55:43;;;;;;;5.35;2.95;;;;;;;24.35;44.03;93237.00;5070123;28;20044;-75
2023/10/14 09:58:13;;;;;;;8.48;2.38;;;;;;;24.42;43.37;93216.34;5070222;28;20079;-74
2023/10/14 10:00:41;;;;;;;4.80;1.95;;;;;;;24.64;43.07;93217.44;5070372;28;20056;-74
2023/10/14 10:03:11;;;;;;;8.50;2.05;;;;;;;24.72;43.20;93218.59;5077899;28;20052;-74
2023/10/14 10:05:42;;;;;;;6.70;2.13;;;;;;;24.74;42.48;93217.22;5075942;28;20048;-74
2023/10/14 10:08:42;;;;;;;10.05;3.10;;;;;;;24.78;43.09;93212.94;5069918;28;20480;-74
2023/10/14 10:11:11;;;;;;;8.45;2.03;;;;;;;24.80;42.20;93205.50;5065052;28;20064;-75
2023/10/14 10:13:40;;;;;;;3.70;2.08;;;;;;;24.66;41.59;93199.53;5076480;28;20052;-75
2023/10/14 10:16:07;;;;;;;6.15;2.03;;;;;;;24.74;42.61;93196.22;5075809;28;20078;-74
2023/10/14 10:18:57;;;;;;;8.88;3.20;;;;;;;24.79;42.45;93184.78;5070223;28;20958;-75
2023/10/14 10:21:27;;;;;;;4.28;2.17;;;;;;;24.91;42.55;93195.56;5070701;28;20143;-74
2023/10/14 10:23:58;;;;;;;11.98;2.97;;;;;;;24.94;43.14;93187.09;5070082;28;20139;-75
2023/10/14 10:26:26;;;;;;;7.13;2.67;;;;;;;24.89;42.79;93187.22;5075919;28;20050;-74
2023/10/14 10:28:53;;;;;;;10.75;3.15;;;;;;;24.94;42.52;93187.09;5067964;28;20063;-74
2023/10/14 10:31:23;;;;;;;5.70;2.60;;;;;;;24.93;42.58;93174.25;5069140;28;20053;-75
2023/10/14 10:33:59;;;;;;;6.72;2.80;;;;;;;25.00;42.88;93179.88;5075964;28;20052;-74
2023/10/14 10:36:27;;;;;;;;;;;;;;;25.08;42.56;93168.59;5068732;28;20052;-75
2023/10/14 10:38:55;;;;;;;4.97;2.47;;;;;;;25.06;42.54;93164.72;5069657;28;19924;-74
2023/10/14 10:41:26;;;;;;;6.15;2.53;;;;;;;25.08;42.31;93149.41;5069387;28;20070;-75
2023/10/14 10:44:00;;;;;;;4.93;3.35;;;;;;;25.20;42.23;93159.38;5075358;28;20048;-75
2023/10/14 10:46:31;;;;;;;13.18;2.65;;;;;;;25.00;42.12;93158.06;5074425;28;20075;-75
2023/10/14 10:48:59;;;;;;;4.47;2.28;;;;;;;24.84;42.38;93149.78;5082311;28;20040;-75
2023/10/14 10:51:31;;;;;;;6.70;2.70;;;;;;;24.81;41.30;93148.50;5087787;28;20044;-75
2023/10/14 10:54:00;;;;;;;6.43;2.67;;;;;;;24.89;42.09;93139.13;5068415;28;20106;-75
2023/10/14 10:56:30;;;;;;;6.53;2.88;;;;;;;25.04;41.02;93135.34;5063929;28;20045;-75
2023/10/14 10:59:04;;;;;;;5.43;2.60;;;;;;;25.15;41.65;93128.75;5086454;28;20085;-75
2023/10/14 11:01:32;;;;;;;5.22;2.33;;;;;;;25.24;41.77;93130.63;5086905;28;20054;-75
2023/10/14 11:04:01;;;;;;;5.85;2.40;;;;;;;25.27;40.55;93130.78;5082800;28;20045;-75
2023/10/14 11:06:29;;;;;;;5.03;2.00;;;;;;;25.46;40.69;93122.66;5071207;28;20052;-75
2023/10/14 11:08:58;;;;;;;2.85;1.80;;;;;;;25.62;40.45;93117.00;5068510;28;20044;-75
2023/10/14 11:11:32;;;;;;;7.55;2.33;;;;;;;25.60;40.44;93103.41;5074067;28;20048;-75
2023/10/14 11:14:00;;;;;;;5.28;2.60;;;;;;;25.67;40.05;93113.44;5065335;28;20094;-75
2023/10/14 11:16:28;;;;;;;8.10;3.88;;;;;;;25.78;40.07;93103.41;5068604;28;20056;-75
2023/10/14 11:18:55;;;;;;;6.93;2.70;;;;;;;25.91;39.40;93109.63;5065480;28;20090;-75
2023/10/14 11:21:27;;;;;;;5.05;2.65;;;;;;;25.97;39.29;93101.25;5064779;28;20055;-75
2023/10/14 11:23:55;;;;;;;12.02;2.20;;;;;;;25.94;38.70;93104.50;5068401;28;20044;-75
2023/10/14 11:26:23;;;;;;;3.95;1.98;;;;;;;25.95;38.39;93097.38;5059699;28;20049;-74
2023/10/14 11:28:51;;;;;;;3.58;1.70;;;;;;;25.92;36.49;93092.75;5072514;28;20416;-74
2023/10/14 11:31:24;;;;;;;4.43;1.95;;;;;;;25.92;37.83;93093.50;5068121;28;20501;-75
2023/10/14 11:33:55;;;;;;;5.50;2.35;;;;;;;25.92;38.35;93084.84;5072764;28;20455;-75
2023/10/14 11:36:26;;;;;;;6.15;2.40;;;;;;;25.96;37.02;93083.16;5064966;28;20553;-75
2023/10/14 11:38:53;;;;;;;6.55;3.03;;;;;;;26.05;38.20;93073.38;5068859;28;20054;-75
2023/10/14 11:41:21;;;;;;;6.82;2.75;;;;;;;26.15;38.59;93078.34;5074996;28;20044;-75
2023/10/14 11:43:48;;;;;;;9.13;2.70;;;;;;;26.08;38.05;93045.66;5063851;28;20416;-75
2023/10/14 11:46:17;;;;;;;8.43;2.30;;;;;;;26.19;37.08;93072.47;5065341;28;20048;-75
2023/10/14 11:48:46;;;;;;;5.10;2.20;;;;;;;26.32;38.11;93066.25;5074593;28;20099;-75
2023/10/14 11:51:19;;;;;;;7.50;2.22;;;;;;;26.42;38.08;93055.41;5067559;28;20044;-75
2023/10/14 11:53:50;;;;;;;4.93;2.00;;;;;;;26.51;37.62;93057.22;5065244;28;20427;-75